sensor_id;sensor_type;location;lat;lon;timestamp;temperature;humidity
3727;DHT22;1879;45.876;12.300;2024-01-30T00:01:54;3.50;1.00
3727;DHT22;1879;45.876;12.300;2024-01-30T00:04:21;3.50;1.00
3727;DHT22;1879;45.876;12.300;2024-01-30T00:06:47;3.40;1.00
3727;DHT22;1879;45.876;12.300;2024-01-30T00:09:16;3.40;1.00
3727;DHT22;1879;45.876;12.300;2024-01-30T00:11:43;3.40;1.00
3727;DHT22;1879;45.876;12.300;2024-01-30T00:14:10;3.40;1.00
3727;DHT22;1879;45.876;12.300;2024-01-30T00:16:36;3.40;1.00
3727;DHT22;1879;45.876;12.300;2024-01-30T00:19:03;3.40;1.00
3727;DHT22;1879;45.876;12.300;2024-01-30T00:21:30;3.40;1.00
3727;DHT22;1879;45.876;12.300;2024-01-30T00:23:57;3.30;1.00
3727;DHT22;1879;45.876;12.300;2024-01-30T00:26:25;3.20;1.00
3727;DHT22;1879;45.876;12.300;2024-01-30T00:28:52;3.20;1.00
3727;DHT22;1879;45.876;12.300;2024-01-30T00:31:19;3.20;1.00
3727;DHT22;1879;45.876;12.300;2024-01-30T00:33:46;3.20;1.00
3727;DHT22;1879;45.876;12.300;2024-01-30T00:36:13;3.20;1.00
3727;DHT22;1879;45.876;12.300;2024-01-30T00:38:40;3.10;1.00
3727;DHT22;1879;45.876;12.300;2024-01-30T00:41:08;3.10;1.00
3727;DHT22;1879;45.876;12.300;2024-01-30T00:43:37;3.10;29.60
3727;DHT22;1879;45.876;12.300;2024-01-30T00:46:04;3.00;50.60
3727;DHT22;1879;45.876;12.300;2024-01-30T00:48:31;3.00;99.90
3727;DHT22;1879;45.876;12.300;2024-01-30T00:50:58;3.00;99.90
3727;DHT22;1879;45.876;12.300;2024-01-30T00:53:25;3.00;99.90
3727;DHT22;1879;45.876;12.300;2024-01-30T00:55:52;3.00;99.90
3727;DHT22;1879;45.876;12.300;2024-01-30T00:58:19;3.00;99.90
3727;DHT22;1879;45.876;12.300;2024-01-30T01:00:47;3.00;99.90
3727;DHT22;1879;45.876;12.300;2024-01-30T01:03:14;2.90;99.90
3727;DHT22;1879;45.876;12.300;2024-01-30T01:05:41;2.80;99.90
3727;DHT22;1879;45.876;12.300;2024-01-30T01:08:08;2.80;99.90
3727;DHT22;1879;45.876;12.300;2024-01-30T01:10:35;2.90;99.90
3727;DHT22;1879;45.876;12.300;2024-01-30T01:13:02;2.90;99.90
3727;DHT22;1879;45.876;12.300;2024-01-30T01:15:29;3.00;99.90
3727;DHT22;1879;45.876;12.300;2024-01-30T01:17:57;3.10;99.90
3727;DHT22;1879;45.876;12.300;2024-01-30T01:20:24;3.10;1.00
3727;DHT22;1879;45.876;12.300;2024-01-30T01:22:51;3.10;1.00
3727;DHT22;1879;45.876;12.300;2024-01-30T01:25:19;3.10;1.00
3727;DHT22;1879;45.876;12.300;2024-01-30T01:27:46;3.10;1.00
3727;DHT22;1879;45.876;12.300;2024-01-30T01:30:17;3.10;1.00
3727;DHT22;1879;45.876;12.300;2024-01-30T01:32:47;3.10;1.00
3727;DHT22;1879;45.876;12.300;2024-01-30T01:35:21;3.10;1.00
3727;DHT22;1879;45.876;12.300;2024-01-30T01:37:49;3.00;1.00
3727;DHT22;1879;45.876;12.300;2024-01-30T01:40:21;2.90;1.00
3727;DHT22;1879;45.876;12.300;2024-01-30T01:42:49;2.90;1.00
3727;DHT22;1879;45.876;12.300;2024-01-30T01:45:17;2.80;66.00
3727;DHT22;1879;45.876;12.300;2024-01-30T01:47:44;2.80;86.90
3727;DHT22;1879;45.876;12.300;2024-01-30T01:50:12;2.80;99.90
3727;DHT22;1879;45.876;12.300;2024-01-30T01:52:40;2.80;99.90
3727;DHT22;1879;45.876;12.300;2024-01-30T01:55:08;2.80;99.90
3727;DHT22;1879;45.876;12.300;2024-01-30T01:57:35;2.80;80.00
3727;DHT22;1879;45.876;12.300;2024-01-30T02:00:02;2.80;99.90
3727;DHT22;1879;45.876;12.300;2024-01-30T02:02:31;2.70;99.90
3727;DHT22;1879;45.876;12.300;2024-01-30T02:04:59;2.70;99.90
3727;DHT22;1879;45.876;12.300;2024-01-30T02:07:27;2.70;99.90
3727;DHT22;1879;45.876;12.300;2024-01-30T02:09:55;2.70;99.90
3727;DHT22;1879;45.876;12.300;2024-01-30T02:12:27;2.60;99.90
3727;DHT22;1879;45.876;12.300;2024-01-30T02:14:55;2.60;99.90
3727;DHT22;1879;45.876;12.300;2024-01-30T02:17:22;2.60;99.90
3727;DHT22;1879;45.876;12.300;2024-01-30T02:19:49;2.60;99.90
3727;DHT22;1879;45.876;12.300;2024-01-30T02:22:17;2.60;99.90
3727;DHT22;1879;45.876;12.300;2024-01-30T02:24:44;2.50;99.90
3727;DHT22;1879;45.876;12.300;2024-01-30T02:27:11;2.50;99.90
3727;DHT22;1879;45.876;12.300;2024-01-30T02:29:38;2.50;99.90
3727;DHT22;1879;45.876;12.300;2024-01-30T02:32:06;2.50;99.90
3727;DHT22;1879;45.876;12.300;2024-01-30T02:34:33;2.50;99.90
3727;DHT22;1879;45.876;12.300;2024-01-30T02:37:00;2.60;99.90
3727;DHT22;1879;45.876;12.300;2024-01-30T02:39:28;2.50;99.90
3727;DHT22;1879;45.876;12.300;2024-01-30T02:41:55;2.50;99.90
3727;DHT22;1879;45.876;12.300;2024-01-30T02:44:22;2.50;99.90
3727;DHT22;1879;45.876;12.300;2024-01-30T02:46:49;2.50;99.90
3727;DHT22;1879;45.876;12.300;2024-01-30T02:49:16;2.50;99.90
3727;DHT22;1879;45.876;12.300;2024-01-30T02:51:43;2.50;99.90
3727;DHT22;1879;45.876;12.300;2024-01-30T02:54:10;2.50;99.90
3727;DHT22;1879;45.876;12.300;2024-01-30T02:56:38;2.50;99.90
3727;DHT22;1879;45.876;12.300;2024-01-30T02:59:05;2.40;99.90
3727;DHT22;1879;45.876;12.300;2024-01-30T03:01:32;2.30;99.90
3727;DHT22;1879;45.876;12.300;2024-01-30T03:03:59;2.30;99.90
3727;DHT22;1879;45.876;12.300;2024-01-30T03:06:26;2.30;99.90
3727;DHT22;1879;45.876;12.300;2024-01-30T03:08:53;2.30;99.90
3727;DHT22;1879;45.876;12.300;2024-01-30T03:11:20;2.20;99.90
3727;DHT22;1879;45.876;12.300;2024-01-30T03:13:48;2.20;99.90
3727;DHT22;1879;45.876;12.300;2024-01-30T03:16:15;2.30;99.90
3727;DHT22;1879;45.876;12.300;2024-01-30T03:18:42;2.30;99.90
3727;DHT22;1879;45.876;12.300;2024-01-30T03:21:08;2.30;19.20
3727;DHT22;1879;45.876;12.300;2024-01-30T03:23:35;2.30;1.80
3727;DHT22;1879;45.876;12.300;2024-01-30T03:26:02;2.40;1.00
3727;DHT22;1879;45.876;12.300;2024-01-30T03:28:32;2.40;1.00
3727;DHT22;1879;45.876;12.300;2024-01-30T03:31:01;2.30;1.00
3727;DHT22;1879;45.876;12.300;2024-01-30T03:33:28;2.40;1.00
3727;DHT22;1879;45.876;12.300;2024-01-30T03:35:54;2.40;99.90
3727;DHT22;1879;45.876;12.300;2024-01-30T03:38:21;2.40;99.90
3727;DHT22;1879;45.876;12.300;2024-01-30T03:40:48;2.40;99.90
3727;DHT22;1879;45.876;12.300;2024-01-30T03:43:15;2.30;99.90
3727;DHT22;1879;45.876;12.300;2024-01-30T03:45:42;2.30;1.00
3727;DHT22;1879;45.876;12.300;2024-01-30T03:48:10;2.20;1.00
3727;DHT22;1879;45.876;12.300;2024-01-30T03:50:37;2.20;1.00
3727;DHT22;1879;45.876;12.300;2024-01-30T03:53:04;2.20;1.00
3727;DHT22;1879;45.876;12.300;2024-01-30T03:55:31;2.20;1.00
3727;DHT22;1879;45.876;12.300;2024-01-30T03:57:58;2.20;1.00
3727;DHT22;1879;45.876;12.300;2024-01-30T04:00:25;2.20;1.00
3727;DHT22;1879;45.876;12.300;2024-01-30T04:02:52;2.10;1.00
3727;DHT22;1879;45.876;12.300;2024-01-30T04:05:20;2.10;1.00
3727;DHT22;1879;45.876;12.300;2024-01-30T04:07:47;2.00;1.00
3727;DHT22;1879;45.876;12.300;2024-01-30T04:10:14;2.00;1.00
3727;DHT22;1879;45.876;12.300;2024-01-30T04:12:41;2.00;1.00
3727;DHT22;1879;45.876;12.300;2024-01-30T04:15:08;2.00;22.20
3727;DHT22;1879;45.876;12.300;2024-01-30T04:17:35;2.00;1.00
3727;DHT22;1879;45.876;12.300;2024-01-30T04:20:02;2.00;77.30
3727;DHT22;1879;45.876;12.300;2024-01-30T04:22:31;1.90;67.50
3727;DHT22;1879;45.876;12.300;2024-01-30T04:24:58;1.90;91.40
3727;DHT22;1879;45.876;12.300;2024-01-30T04:27:25;1.90;73.40
3727;DHT22;1879;45.876;12.300;2024-01-30T04:29:52;1.90;3.90
3727;DHT22;1879;45.876;12.300;2024-01-30T04:32:19;1.90;1.00
3727;DHT22;1879;45.876;12.300;2024-01-30T04:34:46;1.90;1.00
3727;DHT22;1879;45.876;12.300;2024-01-30T04:37:12;1.90;1.00
3727;DHT22;1879;45.876;12.300;2024-01-30T04:39:41;1.90;1.00
3727;DHT22;1879;45.876;12.300;2024-01-30T04:42:08;1.80;20.30
3727;DHT22;1879;45.876;12.300;2024-01-30T04:44:35;1.80;1.00
3727;DHT22;1879;45.876;12.300;2024-01-30T04:47:02;1.80;57.50
3727;DHT22;1879;45.876;12.300;2024-01-30T04:49:31;1.90;21.10
3727;DHT22;1879;45.876;12.300;2024-01-30T04:51:58;2.00;1.00
3727;DHT22;1879;45.876;12.300;2024-01-30T04:54:25;2.00;12.70
3727;DHT22;1879;45.876;12.300;2024-01-30T04:56:53;2.00;1.00
3727;DHT22;1879;45.876;12.300;2024-01-30T04:59:20;2.00;1.00
3727;DHT22;1879;45.876;12.300;2024-01-30T05:01:47;2.00;1.00
3727;DHT22;1879;45.876;12.300;2024-01-30T05:04:14;2.10;1.00
3727;DHT22;1879;45.876;12.300;2024-01-30T05:06:41;2.10;1.00
3727;DHT22;1879;45.876;12.300;2024-01-30T05:09:08;2.20;1.00
3727;DHT22;1879;45.876;12.300;2024-01-30T05:11:37;2.20;1.00
3727;DHT22;1879;45.876;12.300;2024-01-30T05:14:05;2.30;1.00
3727;DHT22;1879;45.876;12.300;2024-01-30T05:16:32;2.20;1.00
3727;DHT22;1879;45.876;12.300;2024-01-30T05:18:59;2.20;1.00
3727;DHT22;1879;45.876;12.300;2024-01-30T05:21:26;2.20;1.00
3727;DHT22;1879;45.876;12.300;2024-01-30T05:23:53;2.10;1.00
3727;DHT22;1879;45.876;12.300;2024-01-30T05:26:20;2.10;99.90
3727;DHT22;1879;45.876;12.300;2024-01-30T05:28:48;2.20;99.90
3727;DHT22;1879;45.876;12.300;2024-01-30T05:31:16;2.20;13.70
3727;DHT22;1879;45.876;12.300;2024-01-30T05:33:43;2.30;99.90
3727;DHT22;1879;45.876;12.300;2024-01-30T05:36:11;2.30;99.90
3727;DHT22;1879;45.876;12.300;2024-01-30T05:38:38;2.20;99.90
3727;DHT22;1879;45.876;12.300;2024-01-30T05:41:05;2.10;99.90
3727;DHT22;1879;45.876;12.300;2024-01-30T05:43:32;2.10;1.00
3727;DHT22;1879;45.876;12.300;2024-01-30T05:45:59;2.10;99.90
3727;DHT22;1879;45.876;12.300;2024-01-30T05:48:27;2.00;99.90
3727;DHT22;1879;45.876;12.300;2024-01-30T05:50:54;1.90;1.00
3727;DHT22;1879;45.876;12.300;2024-01-30T05:53:22;1.90;1.00
3727;DHT22;1879;45.876;12.300;2024-01-30T05:55:49;1.80;1.00
3727;DHT22;1879;45.876;12.300;2024-01-30T05:58:16;1.80;1.00
3727;DHT22;1879;45.876;12.300;2024-01-30T06:00:42;1.80;1.00
3727;DHT22;1879;45.876;12.300;2024-01-30T06:03:09;1.80;1.00
3727;DHT22;1879;45.876;12.300;2024-01-30T06:05:38;1.80;1.00
3727;DHT22;1879;45.876;12.300;2024-01-30T06:08:05;1.80;1.00
3727;DHT22;1879;45.876;12.300;2024-01-30T06:10:32;1.70;1.00
3727;DHT22;1879;45.876;12.300;2024-01-30T06:12:59;1.70;1.00
3727;DHT22;1879;45.876;12.300;2024-01-30T06:15:26;1.70;1.00
3727;DHT22;1879;45.876;12.300;2024-01-30T06:17:55;1.60;1.00
3727;DHT22;1879;45.876;12.300;2024-01-30T06:20:22;1.60;1.00
3727;DHT22;1879;45.876;12.300;2024-01-30T06:22:50;1.60;1.00
3727;DHT22;1879;45.876;12.300;2024-01-30T06:25:17;1.50;13.10
3727;DHT22;1879;45.876;12.300;2024-01-30T06:27:44;1.50;74.20
3727;DHT22;1879;45.876;12.300;2024-01-30T06:30:12;1.50;45.90
3727;DHT22;1879;45.876;12.300;2024-01-30T06:32:39;1.40;99.90
3727;DHT22;1879;45.876;12.300;2024-01-30T06:35:06;1.40;99.90
3727;DHT22;1879;45.876;12.300;2024-01-30T06:37:33;1.40;99.90
3727;DHT22;1879;45.876;12.300;2024-01-30T06:40:02;1.40;99.90
3727;DHT22;1879;45.876;12.300;2024-01-30T06:42:30;1.50;99.90
3727;DHT22;1879;45.876;12.300;2024-01-30T06:44:57;1.50;99.90
3727;DHT22;1879;45.876;12.300;2024-01-30T06:47:24;1.50;99.90
3727;DHT22;1879;45.876;12.300;2024-01-30T06:49:51;1.50;99.90
3727;DHT22;1879;45.876;12.300;2024-01-30T06:52:18;1.50;99.90
3727;DHT22;1879;45.876;12.300;2024-01-30T06:54:44;1.50;99.90
3727;DHT22;1879;45.876;12.300;2024-01-30T06:57:13;1.50;99.90
3727;DHT22;1879;45.876;12.300;2024-01-30T06:59:40;1.50;87.40
3727;DHT22;1879;45.876;12.300;2024-01-30T07:02:09;1.50;99.90
3727;DHT22;1879;45.876;12.300;2024-01-30T07:04:36;1.50;99.90
3727;DHT22;1879;45.876;12.300;2024-01-30T07:07:05;1.60;99.90
3727;DHT22;1879;45.876;12.300;2024-01-30T07:09:37;1.60;99.90
3727;DHT22;1879;45.876;12.300;2024-01-30T07:12:04;1.70;99.90
3727;DHT22;1879;45.876;12.300;2024-01-30T07:14:33;1.80;99.90
3727;DHT22;1879;45.876;12.300;2024-01-30T07:17:00;1.80;99.90
3727;DHT22;1879;45.876;12.300;2024-01-30T07:19:27;1.90;96.80
3727;DHT22;1879;45.876;12.300;2024-01-30T07:21:54;1.90;67.60
3727;DHT22;1879;45.876;12.300;2024-01-30T07:24:21;2.00;47.40
3727;DHT22;1879;45.876;12.300;2024-01-30T07:26:47;2.00;1.00
3727;DHT22;1879;45.876;12.300;2024-01-30T07:29:14;2.10;1.00
3727;DHT22;1879;45.876;12.300;2024-01-30T07:31:43;2.10;1.00
3727;DHT22;1879;45.876;12.300;2024-01-30T07:34:10;2.20;1.00
3727;DHT22;1879;45.876;12.300;2024-01-30T07:36:37;2.20;43.90
3727;DHT22;1879;45.876;12.300;2024-01-30T07:39:04;2.30;68.20
3727;DHT22;1879;45.876;12.300;2024-01-30T07:41:30;2.50;1.00
3727;DHT22;1879;45.876;12.300;2024-01-30T07:43:58;2.70;1.00
3727;DHT22;1879;45.876;12.300;2024-01-30T07:46:25;2.80;1.00
3727;DHT22;1879;45.876;12.300;2024-01-30T07:48:53;2.90;1.00
3727;DHT22;1879;45.876;12.300;2024-01-30T07:51:21;2.90;99.90
3727;DHT22;1879;45.876;12.300;2024-01-30T07:53:54;3.00;99.90
3727;DHT22;1879;45.876;12.300;2024-01-30T07:56:21;3.10;99.90
3727;DHT22;1879;45.876;12.300;2024-01-30T07:58:48;3.20;99.90
3727;DHT22;1879;45.876;12.300;2024-01-30T08:01:15;3.20;61.20
3727;DHT22;1879;45.876;12.300;2024-01-30T08:03:42;3.40;1.00
3727;DHT22;1879;45.876;12.300;2024-01-30T08:06:11;3.50;34.90
3727;DHT22;1879;45.876;12.300;2024-01-30T08:08:38;3.50;99.90
3727;DHT22;1879;45.876;12.300;2024-01-30T08:11:05;3.60;1.00
3727;DHT22;1879;45.876;12.300;2024-01-30T08:13:33;3.70;99.90
3727;DHT22;1879;45.876;12.300;2024-01-30T08:16:00;3.80;99.90
3727;DHT22;1879;45.876;12.300;2024-01-30T08:18:27;3.80;1.00
3727;DHT22;1879;45.876;12.300;2024-01-30T08:20:54;3.90;99.90
3727;DHT22;1879;45.876;12.300;2024-01-30T08:23:23;4.00;17.50
3727;DHT22;1879;45.876;12.300;2024-01-30T08:25:50;4.00;1.00
3727;DHT22;1879;45.876;12.300;2024-01-30T08:28:17;4.20;99.90
3727;DHT22;1879;45.876;12.300;2024-01-30T08:30:44;4.30;1.00
3727;DHT22;1879;45.876;12.300;2024-01-30T08:33:11;4.40;1.00
3727;DHT22;1879;45.876;12.300;2024-01-30T08:35:38;4.50;99.90
3727;DHT22;1879;45.876;12.300;2024-01-30T08:38:06;4.60;93.00
3727;DHT22;1879;45.876;12.300;2024-01-30T08:40:34;4.70;1.00
3727;DHT22;1879;45.876;12.300;2024-01-30T08:43:01;4.80;1.00
3727;DHT22;1879;45.876;12.300;2024-01-30T08:45:29;4.90;1.00
3727;DHT22;1879;45.876;12.300;2024-01-30T08:47:57;5.00;99.90
3727;DHT22;1879;45.876;12.300;2024-01-30T08:50:24;5.00;99.90
3727;DHT22;1879;45.876;12.300;2024-01-30T08:52:50;5.10;1.00
3727;DHT22;1879;45.876;12.300;2024-01-30T08:55:17;5.20;1.00
3727;DHT22;1879;45.876;12.300;2024-01-30T08:57:46;5.40;99.90
3727;DHT22;1879;45.876;12.300;2024-01-30T09:00:14;5.50;81.30
3727;DHT22;1879;45.876;12.300;2024-01-30T09:02:41;5.60;1.00
3727;DHT22;1879;45.876;12.300;2024-01-30T09:05:08;5.60;1.00
3727;DHT22;1879;45.876;12.300;2024-01-30T09:07:35;5.70;1.00
3727;DHT22;1879;45.876;12.300;2024-01-30T09:10:03;5.80;1.00
3727;DHT22;1879;45.876;12.300;2024-01-30T09:12:30;5.90;99.90
3727;DHT22;1879;45.876;12.300;2024-01-30T09:14:58;6.00;99.90
3727;DHT22;1879;45.876;12.300;2024-01-30T09:17:25;6.10;99.90
3727;DHT22;1879;45.876;12.300;2024-01-30T09:19:52;6.20;99.90
3727;DHT22;1879;45.876;12.300;2024-01-30T09:22:19;6.20;99.90
3727;DHT22;1879;45.876;12.300;2024-01-30T09:24:46;6.30;87.90
3727;DHT22;1879;45.876;12.300;2024-01-30T09:27:13;6.40;45.50
3727;DHT22;1879;45.876;12.300;2024-01-30T09:29:40;6.50;27.60
3727;DHT22;1879;45.876;12.300;2024-01-30T09:32:08;6.60;60.90
3727;DHT22;1879;45.876;12.300;2024-01-30T09:34:35;6.70;73.20
3727;DHT22;1879;45.876;12.300;2024-01-30T09:37:02;6.80;65.20
3727;DHT22;1879;45.876;12.300;2024-01-30T09:39:29;6.90;35.00
3727;DHT22;1879;45.876;12.300;2024-01-30T09:42:02;7.00;22.10
3727;DHT22;1879;45.876;12.300;2024-01-30T09:44:31;7.00;17.50
3727;DHT22;1879;45.876;12.300;2024-01-30T09:46:58;7.10;20.10
3727;DHT22;1879;45.876;12.300;2024-01-30T09:49:32;7.30;1.00
3727;DHT22;1879;45.876;12.300;2024-01-30T09:52:00;7.40;1.00
3727;DHT22;1879;45.876;12.300;2024-01-30T09:54:29;7.40;1.00
3727;DHT22;1879;45.876;12.300;2024-01-30T09:56:57;7.60;1.00
3727;DHT22;1879;45.876;12.300;2024-01-30T09:59:24;7.60;1.00
3727;DHT22;1879;45.876;12.300;2024-01-30T10:01:51;7.70;1.00
3727;DHT22;1879;45.876;12.300;2024-01-30T10:04:18;7.80;1.00
3727;DHT22;1879;45.876;12.300;2024-01-30T10:06:47;7.90;1.00
3727;DHT22;1879;45.876;12.300;2024-01-30T10:09:14;8.10;1.00
3727;DHT22;1879;45.876;12.300;2024-01-30T10:11:41;8.20;1.00
3727;DHT22;1879;45.876;12.300;2024-01-30T10:16:35;8.30;99.90
3727;DHT22;1879;45.876;12.300;2024-01-30T10:19:02;7.90;99.90
3727;DHT22;1879;45.876;12.300;2024-01-30T10:21:30;8.60;88.00
3727;DHT22;1879;45.876;12.300;2024-01-30T10:23:58;8.60;1.00
3727;DHT22;1879;45.876;12.300;2024-01-30T10:26:25;8.80;1.00
3727;DHT22;1879;45.876;12.300;2024-01-30T10:28:54;8.80;1.00
3727;DHT22;1879;45.876;12.300;2024-01-30T10:31:21;9.00;1.00
3727;DHT22;1879;45.876;12.300;2024-01-30T10:33:49;9.10;1.00
3727;DHT22;1879;45.876;12.300;2024-01-30T10:36:17;9.20;1.00
3727;DHT22;1879;45.876;12.300;2024-01-30T10:38:45;9.30;99.90
3727;DHT22;1879;45.876;12.300;2024-01-30T10:41:19;9.40;99.90
3727;DHT22;1879;45.876;12.300;2024-01-30T10:43:57;9.50;99.90
3727;DHT22;1879;45.876;12.300;2024-01-30T10:46:29;9.60;99.90
3727;DHT22;1879;45.876;12.300;2024-01-30T10:48:58;9.80;99.90
3727;DHT22;1879;45.876;12.300;2024-01-30T10:51:26;9.90;99.90
3727;DHT22;1879;45.876;12.300;2024-01-30T10:53:54;10.00;99.90
3727;DHT22;1879;45.876;12.300;2024-01-30T10:56:24;10.20;99.90
3727;DHT22;1879;45.876;12.300;2024-01-30T10:58:52;10.30;99.90
3727;DHT22;1879;45.876;12.300;2024-01-30T11:01:20;10.40;99.90
3727;DHT22;1879;45.876;12.300;2024-01-30T11:03:49;10.50;99.90
3727;DHT22;1879;45.876;12.300;2024-01-30T11:06:16;10.60;99.90
3727;DHT22;1879;45.876;12.300;2024-01-30T11:08:45;10.70;97.00
3727;DHT22;1879;45.876;12.300;2024-01-30T11:11:12;10.70;80.70
3727;DHT22;1879;45.876;12.300;2024-01-30T11:13:40;10.80;22.80
3727;DHT22;1879;45.876;12.300;2024-01-30T11:16:11;10.90;1.00
3727;DHT22;1879;45.876;12.300;2024-01-30T11:18:38;11.00;1.00
3727;DHT22;1879;45.876;12.300;2024-01-30T11:21:05;11.00;1.00
3727;DHT22;1879;45.876;12.300;2024-01-30T11:23:34;11.20;1.00
3727;DHT22;1879;45.876;12.300;2024-01-30T11:26:01;11.30;1.00
3727;DHT22;1879;45.876;12.300;2024-01-30T11:28:32;11.30;1.00
3727;DHT22;1879;45.876;12.300;2024-01-30T11:31:06;11.50;1.00
3727;DHT22;1879;45.876;12.300;2024-01-30T11:33:35;11.60;1.00
3727;DHT22;1879;45.876;12.300;2024-01-30T11:36:02;11.90;1.00
3727;DHT22;1879;45.876;12.300;2024-01-30T11:38:32;12.50;1.00
3727;DHT22;1879;45.876;12.300;2024-01-30T11:41:00;13.60;1.00
3727;DHT22;1879;45.876;12.300;2024-01-30T11:43:28;15.30;1.00
3727;DHT22;1879;45.876;12.300;2024-01-30T11:48:23;18.90;1.00
3727;DHT22;1879;45.876;12.300;2024-01-30T11:50:50;20.50;1.00
3727;DHT22;1879;45.876;12.300;2024-01-30T11:53:17;21.10;1.00
3727;DHT22;1879;45.876;12.300;2024-01-30T11:55:49;22.00;1.00
3727;DHT22;1879;45.876;12.300;2024-01-30T11:58:16;22.60;1.00
3727;DHT22;1879;45.876;12.300;2024-01-30T12:00:53;23.10;1.00
3727;DHT22;1879;45.876;12.300;2024-01-30T12:03:20;23.80;1.00
3727;DHT22;1879;45.876;12.300;2024-01-30T12:05:55;24.50;1.00
3727;DHT22;1879;45.876;12.300;2024-01-30T12:08:23;24.80;1.00
3727;DHT22;1879;45.876;12.300;2024-01-30T12:10:56;24.70;1.00
3727;DHT22;1879;45.876;12.300;2024-01-30T12:13:23;24.90;1.00
3727;DHT22;1879;45.876;12.300;2024-01-30T12:15:50;25.50;1.00
3727;DHT22;1879;45.876;12.300;2024-01-30T12:18:19;26.30;1.00
3727;DHT22;1879;45.876;12.300;2024-01-30T12:20:58;26.50;1.00
3727;DHT22;1879;45.876;12.300;2024-01-30T12:23:25;26.40;1.00
3727;DHT22;1879;45.876;12.300;2024-01-30T12:25:53;26.40;1.00
3727;DHT22;1879;45.876;12.300;2024-01-30T12:28:20;26.80;1.00
3727;DHT22;1879;45.876;12.300;2024-01-30T12:30:47;26.50;1.00
3727;DHT22;1879;45.876;12.300;2024-01-30T12:33:16;26.20;1.00
3727;DHT22;1879;45.876;12.300;2024-01-30T12:35:45;26.00;1.00
3727;DHT22;1879;45.876;12.300;2024-01-30T12:38:14;26.00;1.00
3727;DHT22;1879;45.876;12.300;2024-01-30T12:40:41;26.00;1.00
3727;DHT22;1879;45.876;12.300;2024-01-30T12:43:08;26.60;1.00
3727;DHT22;1879;45.876;12.300;2024-01-30T12:45:36;27.40;1.00
3727;DHT22;1879;45.876;12.300;2024-01-30T12:48:03;27.60;1.00
3727;DHT22;1879;45.876;12.300;2024-01-30T12:50:30;27.80;1.00
3727;DHT22;1879;45.876;12.300;2024-01-30T12:52:59;27.90;99.90
3727;DHT22;1879;45.876;12.300;2024-01-30T12:55:28;27.80;99.90
3727;DHT22;1879;45.876;12.300;2024-01-30T12:57:55;28.20;99.90
3727;DHT22;1879;45.876;12.300;2024-01-30T13:00:22;28.60;99.90
3727;DHT22;1879;45.876;12.300;2024-01-30T13:02:49;28.80;1.00
3727;DHT22;1879;45.876;12.300;2024-01-30T13:05:16;29.00;1.00
3727;DHT22;1879;45.876;12.300;2024-01-30T13:07:43;28.80;99.90
3727;DHT22;1879;45.876;12.300;2024-01-30T13:10:10;28.50;99.90
3727;DHT22;1879;45.876;12.300;2024-01-30T13:12:39;28.00;99.90
3727;DHT22;1879;45.876;12.300;2024-01-30T13:15:06;27.90;99.90
3727;DHT22;1879;45.876;12.300;2024-01-30T13:17:33;28.00;99.90
3727;DHT22;1879;45.876;12.300;2024-01-30T13:20:00;27.50;99.90
3727;DHT22;1879;45.876;12.300;2024-01-30T13:22:29;26.80;99.90
3727;DHT22;1879;45.876;12.300;2024-01-30T13:24:56;26.70;99.90
3727;DHT22;1879;45.876;12.300;2024-01-30T13:27:24;26.90;99.90
3727;DHT22;1879;45.876;12.300;2024-01-30T13:29:52;27.30;99.90
3727;DHT22;1879;45.876;12.300;2024-01-30T13:32:19;27.50;99.90
3727;DHT22;1879;45.876;12.300;2024-01-30T13:34:46;27.70;99.90
3727;DHT22;1879;45.876;12.300;2024-01-30T13:37:13;27.80;99.90
3727;DHT22;1879;45.876;12.300;2024-01-30T13:39:39;27.10;99.90
3727;DHT22;1879;45.876;12.300;2024-01-30T13:42:06;26.60;99.90
3727;DHT22;1879;45.876;12.300;2024-01-30T13:44:33;26.50;99.90
3727;DHT22;1879;45.876;12.300;2024-01-30T13:47:02;26.20;99.90
3727;DHT22;1879;45.876;12.300;2024-01-30T13:49:29;25.80;99.90
3727;DHT22;1879;45.876;12.300;2024-01-30T13:51:56;25.70;99.90
3727;DHT22;1879;45.876;12.300;2024-01-30T13:54:23;25.90;99.90
3727;DHT22;1879;45.876;12.300;2024-01-30T13:56:51;25.90;99.90
3727;DHT22;1879;45.876;12.300;2024-01-30T13:59:18;26.50;99.90
3727;DHT22;1879;45.876;12.300;2024-01-30T14:01:49;26.30;99.90
3727;DHT22;1879;45.876;12.300;2024-01-30T14:04:17;26.50;99.90
3727;DHT22;1879;45.876;12.300;2024-01-30T14:06:44;26.60;99.90
3727;DHT22;1879;45.876;12.300;2024-01-30T14:09:11;26.70;99.90
3727;DHT22;1879;45.876;12.300;2024-01-30T14:11:41;26.80;99.90
3727;DHT22;1879;45.876;12.300;2024-01-30T14:14:08;27.00;99.90
3727;DHT22;1879;45.876;12.300;2024-01-30T14:16:35;27.10;99.90
3727;DHT22;1879;45.876;12.300;2024-01-30T14:19:02;26.40;99.90
3727;DHT22;1879;45.876;12.300;2024-01-30T14:21:30;26.20;99.90
3727;DHT22;1879;45.876;12.300;2024-01-30T14:23:57;25.40;99.90
3727;DHT22;1879;45.876;12.300;2024-01-30T14:26:24;25.30;99.90
3727;DHT22;1879;45.876;12.300;2024-01-30T14:28:51;25.20;99.90
3727;DHT22;1879;45.876;12.300;2024-01-30T14:31:18;24.60;99.90
3727;DHT22;1879;45.876;12.300;2024-01-30T14:33:46;23.90;99.90
3727;DHT22;1879;45.876;12.300;2024-01-30T14:36:12;22.90;99.90
3727;DHT22;1879;45.876;12.300;2024-01-30T14:38:41;22.40;99.90
3727;DHT22;1879;45.876;12.300;2024-01-30T14:41:08;21.80;99.90
3727;DHT22;1879;45.876;12.300;2024-01-30T14:43:35;21.10;99.90
3727;DHT22;1879;45.876;12.300;2024-01-30T14:46:03;20.50;99.90
3727;DHT22;1879;45.876;12.300;2024-01-30T14:48:32;20.10;99.90
3727;DHT22;1879;45.876;12.300;2024-01-30T14:50:59;19.70;99.90
3727;DHT22;1879;45.876;12.300;2024-01-30T14:53:26;19.50;99.90
3727;DHT22;1879;45.876;12.300;2024-01-30T14:55:54;19.30;99.90
3727;DHT22;1879;45.876;12.300;2024-01-30T14:58:21;19.00;99.90
3727;DHT22;1879;45.876;12.300;2024-01-30T15:00:48;18.80;99.90
3727;DHT22;1879;45.876;12.300;2024-01-30T15:03:15;18.80;99.90
3727;DHT22;1879;45.876;12.300;2024-01-30T15:05:42;18.80;99.90
3727;DHT22;1879;45.876;12.300;2024-01-30T15:08:09;18.70;99.90
3727;DHT22;1879;45.876;12.300;2024-01-30T15:10:35;18.40;99.90
3727;DHT22;1879;45.876;12.300;2024-01-30T15:13:04;18.30;99.90
3727;DHT22;1879;45.876;12.300;2024-01-30T15:15:31;18.10;99.90
3727;DHT22;1879;45.876;12.300;2024-01-30T15:17:58;17.90;99.90
3727;DHT22;1879;45.876;12.300;2024-01-30T15:20:25;17.60;99.90
3727;DHT22;1879;45.876;12.300;2024-01-30T15:22:51;17.20;99.90
3727;DHT22;1879;45.876;12.300;2024-01-30T15:25:18;16.70;99.90
3727;DHT22;1879;45.876;12.300;2024-01-30T15:27:46;16.30;99.90
3727;DHT22;1879;45.876;12.300;2024-01-30T15:30:14;15.90;99.90
3727;DHT22;1879;45.876;12.300;2024-01-30T15:32:41;15.70;99.90
3727;DHT22;1879;45.876;12.300;2024-01-30T15:35:08;15.40;99.90
3727;DHT22;1879;45.876;12.300;2024-01-30T15:37:35;15.10;99.90
3727;DHT22;1879;45.876;12.300;2024-01-30T15:40:02;14.90;99.90
3727;DHT22;1879;45.876;12.300;2024-01-30T15:44:59;14.50;99.90
3727;DHT22;1879;45.876;12.300;2024-01-30T15:47:28;14.40;99.90
3727;DHT22;1879;45.876;12.300;2024-01-30T15:49:55;14.10;99.90
3727;DHT22;1879;45.876;12.300;2024-01-30T15:52:22;13.90;99.90
3727;DHT22;1879;45.876;12.300;2024-01-30T15:54:48;13.70;99.90
3727;DHT22;1879;45.876;12.300;2024-01-30T15:57:15;13.50;99.90
3727;DHT22;1879;45.876;12.300;2024-01-30T15:59:42;13.30;99.90
3727;DHT22;1879;45.876;12.300;2024-01-30T16:02:09;13.10;99.90
3727;DHT22;1879;45.876;12.300;2024-01-30T16:04:37;12.90;99.90
3727;DHT22;1879;45.876;12.300;2024-01-30T16:07:04;12.70;99.90
3727;DHT22;1879;45.876;12.300;2024-01-30T16:09:31;12.50;99.90
3727;DHT22;1879;45.876;12.300;2024-01-30T16:11:58;12.30;99.90